CNY4 weather

Alliston Airport
Alliston, Ontario, Canada

Public forecast

Using degrees Celsius for public forecast. Weather courtesy of forecast.io.

Closest aviation weather report (METAR) to Alliston Airport

Closest report is CFB Borden, 6.2 nm (11.5 km) NNW. Retrieved 2019/10/19 06:00 UTC (44 minutes ago):

CYBN 190600Z AUTO 24003KT 9SM CLR M03/M03 A3005 RMK ICG SLP185

Closest aviation forecast (TAF) to Alliston Airport

Forecast is more than 12 hours old.

Closest forecast is CFB Borden, 6.2 nm (11.5 km) NNW. Retrieved 2019/10/18 18:33 UTC (12 hours ago):

TAF TAF CYBN 181730Z 1818/1906 33010KT P6SM BKN020 BECMG 1818/1819 SCT025 SCT240 BECMG 1823/1901 VRB03KT RMK FCST BASED ON AUTO OBS NXT FCST BY 190000Z